TimeEDT,TemperatureF,Dew PointF,Humidity,Sea Level PressureIn,VisibilityMPH,Wind Direction,Wind SpeedMPH,Gust SpeedMPH,PrecipitationIn,Events,Conditions,WindDirDegrees,DateUTC
12:15 AM,71.6,69.8,94,29.89,10.0,WNW,3.5,-,N/A,,Clear,300,2013-07-25 04:15:00
12:35 AM,71.6,69.8,94,29.89,10.0,Calm,Calm,-,N/A,,Clear,0,2013-07-25 04:35:00
12:53 AM,73.0,70.0,90,29.87,-9999.0,Calm,Calm,-,N/A,,Unknown,0,2013-07-25 04:53:00
12:55 AM,71.6,69.8,94,29.89,10.0,Calm,Calm,-,N/A,,Scattered Clouds,0,2013-07-25 04:55:00
1:15 AM,71.6,69.8,94,29.89,7.0,Calm,Calm,-,N/A,,Mostly Cloudy,0,2013-07-25 05:15:00
1:35 AM,71.6,69.8,94,29.89,7.0,Calm,Calm,-,N/A,,Scattered Clouds,0,2013-07-25 05:35:00
1:53 AM,73.0,70.0,90,29.87,-9999.0,Calm,Calm,-,N/A,,Unknown,0,2013-07-25 05:53:00
1:55 AM,71.6,69.8,94,29.89,7.0,Calm,Calm,-,N/A,,Scattered Clouds,0,2013-07-25 05:55:00
2:15 AM,69.8,69.8,100,29.89,1.5,Calm,Calm,-,N/A,,Mist,0,2013-07-25 06:15:00
2:35 AM,69.8,68.0,94,29.89,0.8,Calm,Calm,-,N/A,,Mist,0,2013-07-25 06:35:00
2:53 AM,72.0,69.1,91,29.87,-9999.0,Calm,Calm,-,N/A,,Unknown,0,2013-07-25 06:53:00
2:55 AM,69.8,69.8,100,29.89,0.8,Calm,Calm,-,N/A,,Mist,0,2013-07-25 06:55:00
3:15 AM,69.8,68.0,94,29.88,1.5,Calm,Calm,-,N/A,,Mist,0,2013-07-25 07:15:00
3:35 AM,69.8,68.0,94,29.87,1.0,Calm,Calm,-,N/A,,Overcast,0,2013-07-25 07:35:00
3:53 AM,72.0,70.0,93,29.86,-9999.0,Calm,Calm,-,N/A,,Unknown,0,2013-07-25 07:53:00
3:55 AM,69.8,69.8,100,29.88,0.8,Calm,Calm,-,N/A,,Overcast,0,2013-07-25 07:55:00
4:15 AM,69.8,69.8,100,29.89,0.2,Calm,Calm,-,N/A,Fog,Fog,0,2013-07-25 08:15:00
4:35 AM,71.6,69.8,94,29.88,7.0,West,4.6,-,N/A,,Overcast,270,2013-07-25 08:35:00
4:53 AM,73.0,70.0,90,29.86,-9999.0,Calm,Calm,-,N/A,,Unknown,0,2013-07-25 08:53:00
4:55 AM,71.6,69.8,94,29.88,10.0,Calm,Calm,-,N/A,,Overcast,0,2013-07-25 08:55:00
5:15 AM,71.6,69.8,94,29.88,7.0,Calm,Calm,-,N/A,,Overcast,0,2013-07-25 09:15:00
5:35 AM,71.6,69.8,94,29.89,7.0,WNW,3.5,-,N/A,,Overcast,290,2013-07-25 09:35:00
5:53 AM,73.0,70.0,90,29.88,-9999.0,West,4.6,-,N/A,,Unknown,280,2013-07-25 09:53:00
5:55 AM,71.6,69.8,94,29.90,10.0,WNW,5.8,-,N/A,,Overcast,290,2013-07-25 09:55:00
6:15 AM,71.6,69.8,94,29.91,10.0,WNW,4.6,-,N/A,,Overcast,290,2013-07-25 10:15:00
6:35 AM,71.6,69.8,94,29.91,10.0,NW,5.8,-,N/A,,Overcast,310,2013-07-25 10:35:00
6:53 AM,72.0,70.0,93,29.90,-9999.0,North,3.5,-,0.01,,Unknown,350,2013-07-25 10:53:00
6:55 AM,71.6,69.8,94,29.91,10.0,Calm,Calm,-,N/A,,Mostly Cloudy,0,2013-07-25 10:55:00
7:15 AM,69.8,69.8,100,29.91,7.0,Calm,Calm,-,N/A,,Scattered Clouds,0,2013-07-25 11:15:00
7:35 AM,71.6,69.8,94,29.91,7.0,Calm,Calm,-,N/A,,Clear,0,2013-07-25 11:35:00
7:53 AM,73.9,70.0,87,29.90,-9999.0,Calm,Calm,-,N/A,,Unknown,0,2013-07-25 11:53:00
7:55 AM,71.6,69.8,94,29.92,7.0,Calm,Calm,-,N/A,,Clear,0,2013-07-25 11:55:00
8:15 AM,71.6,69.8,94,29.92,10.0,Calm,Calm,-,N/A,,Clear,0,2013-07-25 12:15:00
8:35 AM,71.6,71.6,100,29.92,10.0,Calm,Calm,-,N/A,,Clear,0,2013-07-25 12:35:00
8:53 AM,77.0,72.0,84,29.92,-9999.0,WSW,3.5,-,0.01,,Unknown,250,2013-07-25 12:53:00
8:55 AM,73.4,71.6,94,29.93,10.0,Calm,Calm,-,N/A,,Clear,0,2013-07-25 12:55:00
9:15 AM,73.4,71.6,94,29.94,10.0,Calm,Calm,-,N/A,,Scattered Clouds,0,2013-07-25 13:15:00
9:35 AM,77.0,73.4,89,29.94,10.0,WNW,4.6,-,N/A,Thunderstorm,Scattered Clouds,300,2013-07-25 13:35:00
9:53 AM,80.1,72.0,76,29.92,-9999.0,WNW,6.9,-,N/A,,Unknown,290,2013-07-25 13:53:00
9:55 AM,77.0,71.6,83,29.94,10.0,WNW,5.8,-,N/A,,Clear,300,2013-07-25 13:55:00
10:15 AM,78.8,71.6,78,29.95,10.0,Calm,Calm,-,N/A,,Clear,0,2013-07-25 14:15:00
10:35 AM,78.8,71.6,78,29.95,10.0,West,4.6,-,N/A,,Clear,260,2013-07-25 14:35:00
10:53 AM,82.0,73.0,74,29.94,-9999.0,WSW,9.2,-,N/A,,Unknown,240,2013-07-25 14:53:00
10:55 AM,80.6,71.6,74,29.95,10.0,WSW,8.1,-,N/A,,Clear,250,2013-07-25 14:55:00
11:15 AM,80.6,73.4,79,29.96,10.0,SW,5.8,-,N/A,,Scattered Clouds,230,2013-07-25 15:15:00
11:35 AM,80.6,71.6,74,29.96,10.0,SSW,6.9,-,N/A,,Scattered Clouds,210,2013-07-25 15:35:00
11:53 AM,82.9,72.0,69,29.95,-9999.0,SW,8.1,-,N/A,,Unknown,220,2013-07-25 15:53:00
11:55 AM,80.6,71.6,74,29.97,10.0,WSW,8.1,-,N/A,,Clear,240,2013-07-25 15:55:00
12:15 PM,80.6,71.6,74,29.97,10.0,SW,8.1,-,N/A,,Scattered Clouds,230,2013-07-25 16:15:00
12:35 PM,80.6,73.4,79,29.98,10.0,WSW,10.4,-,N/A,,Mostly Cloudy,240,2013-07-25 16:35:00
12:53 PM,84.9,73.0,67,29.96,-9999.0,WSW,8.1,-,N/A,,Unknown,240,2013-07-25 16:53:00
12:55 PM,82.4,71.6,70,29.97,10.0,WSW,8.1,-,N/A,,Mostly Cloudy,250,2013-07-25 16:55:00
1:15 PM,82.4,71.6,70,29.97,10.0,SW,8.1,-,N/A,,Scattered Clouds,230,2013-07-25 17:15:00
1:35 PM,82.4,73.4,74,29.96,10.0,SW,10.4,-,N/A,,Scattered Clouds,220,2013-07-25 17:35:00
1:53 PM,84.9,73.0,67,29.94,-9999.0,SW,9.2,-,N/A,,Unknown,220,2013-07-25 17:53:00
1:55 PM,82.4,71.6,70,29.96,10.0,SW,9.2,-,N/A,,Mostly Cloudy,230,2013-07-25 17:55:00
2:15 PM,82.4,71.6,70,29.96,10.0,SW,11.5,-,N/A,,Mostly Cloudy,230,2013-07-25 18:15:00
2:35 PM,84.2,71.6,66,29.96,10.0,WSW,10.4,-,N/A,,Scattered Clouds,240,2013-07-25 18:35:00
2:53 PM,87.1,73.0,63,29.94,-9999.0,SW,10.4,-,N/A,,Unknown,230,2013-07-25 18:53:00
2:55 PM,84.2,71.6,66,29.96,10.0,WSW,9.2,-,N/A,,Scattered Clouds,250,2013-07-25 18:55:00
3:15 PM,84.2,71.6,66,29.96,10.0,SW,10.4,-,N/A,,Mostly Cloudy,230,2013-07-25 19:15:00
3:35 PM,84.2,71.6,66,29.95,10.0,SW,8.1,-,N/A,,Scattered Clouds,230,2013-07-25 19:35:00
3:53 PM,84.9,73.9,69,29.93,-9999.0,SW,10.4,-,N/A,,Unknown,230,2013-07-25 19:53:00
3:55 PM,84.2,73.4,70,29.95,10.0,WSW,10.4,-,N/A,,Scattered Clouds,240,2013-07-25 19:55:00
4:15 PM,84.2,71.6,66,29.94,10.0,WSW,10.4,-,N/A,,Scattered Clouds,240,2013-07-25 20:15:00
4:35 PM,84.2,73.4,70,29.94,10.0,SSW,8.1,-,N/A,,Clear,210,2013-07-25 20:35:00
4:53 PM,87.1,73.9,65,29.92,-9999.0,SW,9.2,-,N/A,,Unknown,220,2013-07-25 20:53:00
4:55 PM,86.0,73.4,66,29.94,10.0,SW,9.2,-,N/A,,Scattered Clouds,220,2013-07-25 20:55:00
5:15 PM,86.0,73.4,66,29.93,10.0,SW,9.2,-,N/A,,Scattered Clouds,230,2013-07-25 21:15:00
5:35 PM,84.2,71.6,66,29.93,10.0,WSW,6.9,-,N/A,,Scattered Clouds,240,2013-07-25 21:35:00
5:53 PM,86.0,73.0,65,29.91,-9999.0,WSW,3.5,-,N/A,,Unknown,240,2013-07-25 21:53:00
5:55 PM,86.0,71.6,62,29.93,10.0,Calm,Calm,-,N/A,,Clear,0,2013-07-25 21:55:00
6:15 PM,82.4,71.6,70,29.93,10.0,West,4.6,-,N/A,,Clear,270,2013-07-25 22:15:00
6:53 PM,82.9,73.9,74,29.92,-9999.0,West,6.9,-,N/A,,Unknown,270,2013-07-25 22:53:00
6:55 PM,82.4,73.4,74,29.94,10.0,West,5.8,-,N/A,,Clear,280,2013-07-25 22:55:00
7:15 PM,80.6,73.4,79,29.94,10.0,West,5.8,-,N/A,,Clear,260,2013-07-25 23:15:00
7:35 PM,80.6,73.4,79,29.94,10.0,Calm,Calm,-,N/A,,Clear,0,2013-07-25 23:35:00
7:53 PM,82.9,75.0,77,29.93,-9999.0,West,3.5,-,N/A,,Unknown,270,2013-07-25 23:53:00
7:55 PM,80.6,73.4,79,29.95,10.0,Calm,Calm,-,N/A,,Clear,0,2013-07-25 23:55:00
8:15 PM,80.6,73.4,79,29.95,10.0,West,3.5,-,N/A,,Clear,270,2013-07-26 00:15:00
8:35 PM,78.8,73.4,83,29.95,10.0,Calm,Calm,-,N/A,,Clear,0,2013-07-26 00:35:00
8:53 PM,80.1,75.0,85,29.94,-9999.0,Calm,Calm,-,N/A,,Unknown,0,2013-07-26 00:53:00
8:55 PM,78.8,73.4,83,29.95,5.0,Calm,Calm,-,N/A,,Clear,0,2013-07-26 00:55:00
9:15 PM,78.8,73.4,83,29.95,10.0,Calm,Calm,-,N/A,,Clear,0,2013-07-26 01:15:00
9:35 PM,77.0,73.4,89,29.96,10.0,Calm,Calm,-,N/A,,Clear,0,2013-07-26 01:35:00
9:53 PM,78.1,75.0,90,29.95,-9999.0,Calm,Calm,-,N/A,,Unknown,0,2013-07-26 01:53:00
9:55 PM,77.0,73.4,89,29.97,7.0,Calm,Calm,-,N/A,,Clear,0,2013-07-26 01:55:00
10:15 PM,77.0,73.4,89,29.97,7.0,Calm,Calm,-,N/A,,Clear,0,2013-07-26 02:15:00
10:35 PM,77.0,73.4,89,29.97,7.0,Calm,Calm,-,N/A,,Clear,0,2013-07-26 02:35:00
10:53 PM,77.0,73.9,90,29.96,-9999.0,Calm,Calm,-,N/A,,Unknown,0,2013-07-26 02:53:00
10:55 PM,75.2,73.4,94,29.98,5.0,Calm,Calm,-,N/A,,Clear,0,2013-07-26 02:55:00
11:15 PM,75.2,73.4,94,29.98,5.0,Calm,Calm,-,N/A,,Clear,0,2013-07-26 03:15:00
11:35 PM,73.4,71.6,94,29.98,2.5,Calm,Calm,-,N/A,,Clear,0,2013-07-26 03:35:00
11:53 PM,77.0,73.9,90,29.97,-9999.0,Calm,Calm,-,N/A,,Unknown,0,2013-07-26 03:53:00
11:55 PM,75.2,73.4,94,29.98,4.0,Calm,Calm,-,N/A,,Clear,0,2013-07-26 03:55:00